createdAt,value
2023-01-20T00:00:55.150Z,989.71
2023-01-20T00:01:55.105Z,989.74
2023-01-20T00:02:55.197Z,989.75
2023-01-20T00:03:55.168Z,989.76
2023-01-20T00:04:55.105Z,989.76
2023-01-20T00:05:55.057Z,989.75
2023-01-20T00:06:55.053Z,989.72
2023-01-20T00:07:55.055Z,989.77
2023-01-20T00:08:55.028Z,989.76
2023-01-20T00:09:55.034Z,989.77
2023-01-20T00:10:55.048Z,989.77
2023-01-20T00:11:54.993Z,989.79
2023-01-20T00:12:54.981Z,989.78
2023-01-20T00:13:54.975Z,989.86
2023-01-20T00:14:54.995Z,989.81
2023-01-20T00:15:55.008Z,989.81
2023-01-20T00:16:54.936Z,989.82
2023-01-20T00:17:54.931Z,989.84
2023-01-20T00:18:54.965Z,989.82
2023-01-20T00:19:54.914Z,989.84
2023-01-20T00:20:54.899Z,989.83
2023-01-20T00:21:54.919Z,989.88
2023-01-20T00:22:54.861Z,989.83
2023-01-20T00:23:54.873Z,989.87
2023-01-20T00:24:54.864Z,989.84
2023-01-20T00:25:54.858Z,989.83
2023-01-20T00:26:54.838Z,989.83
2023-01-20T00:27:54.815Z,989.83
2023-01-20T00:28:54.832Z,989.81
2023-01-20T00:29:54.796Z,989.86
2023-01-20T00:30:54.889Z,989.84
2023-01-20T00:31:54.775Z,989.87
2023-01-20T00:32:54.800Z,989.86
2023-01-20T00:33:54.780Z,989.85
2023-01-20T00:34:54.741Z,989.84
2023-01-20T00:35:54.741Z,989.84
2023-01-20T00:36:54.739Z,989.86
2023-01-20T00:37:54.705Z,989.89
2023-01-20T00:38:54.695Z,989.89
2023-01-20T00:39:54.715Z,989.86
2023-01-20T00:40:54.683Z,989.90
2023-01-20T00:41:54.678Z,989.88
2023-01-20T00:42:54.653Z,989.90
2023-01-20T00:43:54.663Z,989.91
2023-01-20T00:44:54.637Z,989.92
2023-01-20T00:45:54.627Z,989.91
2023-01-20T00:46:54.651Z,989.94
2023-01-20T00:47:54.606Z,989.94
2023-01-20T00:48:54.664Z,989.98
2023-01-20T00:49:54.597Z,989.93
2023-01-20T00:50:54.564Z,989.93
2023-01-20T00:51:54.549Z,989.98
2023-01-20T00:52:54.536Z,990.03
2023-01-20T00:53:54.554Z,990.00
2023-01-20T00:54:54.535Z,990.00
2023-01-20T00:55:54.536Z,990.03
2023-01-20T00:56:54.511Z,989.99
2023-01-20T00:57:54.487Z,990.07
2023-01-20T00:58:54.476Z,990.04
2023-01-20T00:59:54.490Z,990.05
2023-01-20T01:00:54.479Z,990.08
2023-01-20T01:01:54.632Z,990.06
2023-01-20T01:02:55.145Z,990.10
2023-01-20T01:03:54.458Z,990.04
2023-01-20T01:04:54.413Z,990.09
2023-01-20T01:05:54.401Z,990.07
2023-01-20T01:06:54.385Z,990.05
2023-01-20T01:07:54.394Z,990.09
2023-01-20T01:08:54.368Z,990.11
2023-01-20T01:09:54.366Z,990.09
2023-01-20T01:10:54.337Z,990.10
2023-01-20T01:11:54.398Z,990.08
2023-01-20T01:12:54.321Z,990.12
2023-01-20T01:13:54.331Z,990.14
2023-01-20T01:14:54.308Z,990.12
2023-01-20T01:15:54.320Z,990.07
2023-01-20T01:16:56.561Z,990.14
2023-01-20T01:17:54.270Z,990.15
2023-01-20T01:18:54.263Z,990.15
2023-01-20T01:19:54.242Z,990.18
2023-01-20T01:20:54.254Z,990.19
2023-01-20T01:21:54.217Z,990.22
2023-01-20T01:22:54.210Z,990.28
2023-01-20T01:23:54.225Z,990.22
2023-01-20T01:24:54.188Z,990.29
2023-01-20T01:25:54.193Z,990.27
2023-01-20T01:26:54.188Z,990.29
2023-01-20T01:27:54.151Z,990.31
2023-01-20T01:28:54.148Z,990.34
2023-01-20T01:29:54.144Z,990.34
2023-01-20T01:30:54.142Z,990.38
2023-01-20T01:31:54.112Z,990.37
2023-01-20T01:32:54.111Z,990.42
2023-01-20T01:33:54.088Z,990.45
2023-01-20T01:34:54.090Z,990.42
2023-01-20T01:35:54.073Z,990.42
2023-01-20T01:36:54.054Z,990.42
2023-01-20T01:37:54.057Z,990.44
2023-01-20T01:38:57.591Z,990.42
2023-01-20T01:39:54.023Z,990.42
2023-01-20T01:40:54.027Z,990.46
2023-01-20T01:41:54.002Z,990.42
2023-01-20T01:42:53.991Z,990.43
2023-01-20T01:43:53.992Z,990.45
2023-01-20T01:44:53.999Z,990.39
2023-01-20T01:45:54.269Z,990.46
2023-01-20T01:46:53.943Z,990.44
2023-01-20T01:47:53.930Z,990.45
2023-01-20T01:48:53.917Z,990.48
2023-01-20T01:49:53.916Z,990.50
2023-01-20T01:50:53.895Z,990.51
2023-01-20T01:51:53.888Z,990.54
2023-01-20T01:52:53.872Z,990.55
2023-01-20T01:53:53.891Z,990.53
2023-01-20T01:54:53.863Z,990.55
2023-01-20T01:55:53.856Z,990.61
2023-01-20T01:56:53.832Z,990.57
2023-01-20T01:57:53.816Z,990.54
2023-01-20T01:58:53.831Z,990.58
2023-01-20T01:59:53.805Z,990.60
2023-01-20T02:00:53.886Z,990.64
2023-01-20T02:01:53.912Z,990.62
2023-01-20T02:02:53.771Z,990.58
2023-01-20T02:03:53.762Z,990.62
2023-01-20T02:04:53.763Z,990.59
2023-01-20T02:05:53.750Z,990.61
2023-01-20T02:06:53.739Z,990.64
2023-01-20T02:07:53.707Z,990.63
2023-01-20T02:08:53.702Z,990.64
2023-01-20T02:09:53.702Z,990.64
2023-01-20T02:10:53.692Z,990.67
2023-01-20T02:11:53.677Z,990.66
2023-01-20T02:12:53.660Z,990.64
2023-01-20T02:13:53.656Z,990.63
2023-01-20T02:14:53.664Z,990.70
2023-01-20T02:15:53.632Z,990.64
2023-01-20T02:16:53.631Z,990.65
2023-01-20T02:17:53.620Z,990.66
2023-01-20T02:18:53.594Z,990.64
2023-01-20T02:19:53.597Z,990.68
2023-01-20T02:20:53.571Z,990.66
2023-01-20T02:21:53.569Z,990.64
2023-01-20T02:22:53.605Z,990.64
2023-01-20T02:23:53.541Z,990.68
2023-01-20T02:24:53.523Z,990.69
2023-01-20T02:25:53.515Z,990.69
2023-01-20T02:26:53.503Z,990.71
2023-01-20T02:27:53.530Z,990.71
2023-01-20T02:28:53.476Z,990.76
2023-01-20T02:29:53.489Z,990.73
2023-01-20T02:30:53.574Z,990.72
2023-01-20T02:31:53.555Z,990.74
2023-01-20T02:32:53.444Z,990.76
2023-01-20T02:33:53.432Z,990.75
2023-01-20T02:34:53.453Z,990.72
2023-01-20T02:35:53.398Z,990.76
2023-01-20T02:36:53.382Z,990.75
2023-01-20T02:37:53.378Z,990.79
2023-01-20T02:38:53.384Z,990.84
2023-01-20T02:39:53.351Z,990.79
2023-01-20T02:40:53.361Z,990.82
2023-01-20T02:41:53.369Z,990.83
2023-01-20T02:42:53.332Z,990.82
2023-01-20T02:43:53.341Z,990.84
2023-01-20T02:44:53.308Z,990.85
2023-01-20T02:45:53.370Z,990.85
2023-01-20T02:46:53.306Z,990.84
2023-01-20T02:47:53.305Z,990.86
2023-01-20T02:48:53.263Z,990.85
2023-01-20T02:49:53.279Z,990.90
2023-01-20T02:50:53.238Z,990.86
2023-01-20T02:51:53.280Z,990.90
2023-01-20T02:52:53.218Z,990.89
2023-01-20T02:53:53.199Z,990.85
2023-01-20T02:54:53.197Z,990.84
2023-01-20T02:55:53.193Z,990.84
2023-01-20T02:56:53.176Z,990.83
2023-01-20T02:57:53.160Z,990.85
2023-01-20T02:58:53.158Z,990.90
2023-01-20T02:59:53.178Z,990.89
2023-01-20T03:00:53.135Z,990.92
2023-01-20T03:01:53.326Z,990.92
2023-01-20T03:02:53.109Z,990.96
2023-01-20T03:03:53.150Z,990.93
2023-01-20T03:04:53.076Z,990.93
2023-01-20T03:05:53.133Z,990.93
2023-01-20T03:06:53.065Z,991.00
2023-01-20T03:07:53.077Z,990.90
2023-01-20T03:08:53.057Z,990.93
2023-01-20T03:09:53.062Z,990.96
2023-01-20T03:10:53.041Z,990.96
2023-01-20T03:11:53.006Z,990.94
2023-01-20T03:12:53.007Z,991.01
2023-01-20T03:13:52.986Z,990.97
2023-01-20T03:14:52.970Z,991.00
2023-01-20T03:15:52.972Z,991.04
2023-01-20T03:16:53.035Z,991.06
2023-01-20T03:17:52.931Z,991.07
2023-01-20T03:18:52.986Z,991.08
2023-01-20T03:19:52.911Z,991.08
2023-01-20T03:20:52.900Z,991.07
2023-01-20T03:21:52.919Z,991.13
2023-01-20T03:22:52.884Z,991.11
2023-01-20T03:23:52.869Z,991.17
2023-01-20T03:24:52.883Z,991.14
2023-01-20T03:25:52.841Z,991.12
2023-01-20T03:26:52.858Z,991.14
2023-01-20T03:27:52.825Z,991.13
2023-01-20T03:28:52.823Z,991.14
2023-01-20T03:29:52.804Z,991.18
2023-01-20T03:30:52.880Z,991.14
2023-01-20T03:31:52.787Z,991.20
2023-01-20T03:32:52.783Z,991.21
2023-01-20T03:33:52.763Z,991.17
2023-01-20T03:34:52.752Z,991.21
2023-01-20T03:35:52.739Z,991.18
2023-01-20T03:36:52.760Z,991.19
2023-01-20T03:37:52.717Z,991.17
2023-01-20T03:38:52.711Z,991.18
2023-01-20T03:39:52.698Z,991.15
2023-01-20T03:40:52.682Z,991.15
2023-01-20T03:41:52.680Z,991.18
2023-01-20T03:42:52.654Z,991.21
2023-01-20T03:43:52.650Z,991.19
2023-01-20T03:44:52.635Z,991.21
2023-01-20T03:45:52.669Z,991.18
2023-01-20T03:46:52.635Z,991.21
2023-01-20T03:47:52.619Z,991.20
2023-01-20T03:48:52.589Z,991.19
2023-01-20T03:49:52.601Z,991.21
2023-01-20T03:50:52.595Z,991.21
2023-01-20T03:51:52.569Z,991.16
2023-01-20T03:52:52.556Z,991.17
2023-01-20T03:53:52.548Z,991.16
2023-01-20T03:54:52.524Z,991.18
2023-01-20T03:55:52.543Z,991.21
2023-01-20T03:56:52.505Z,991.23
2023-01-20T03:57:52.508Z,991.27
2023-01-20T03:58:52.489Z,991.24
2023-01-20T03:59:52.506Z,991.26
2023-01-20T04:00:52.509Z,991.30
2023-01-20T04:01:52.654Z,991.32
2023-01-20T04:02:52.441Z,991.32
2023-01-20T04:03:52.444Z,991.34
2023-01-20T04:04:52.423Z,991.34
2023-01-20T04:05:52.423Z,991.34
2023-01-20T04:06:52.399Z,991.31
2023-01-20T04:07:52.395Z,991.36
2023-01-20T04:08:52.408Z,991.35
2023-01-20T04:09:52.374Z,991.28
2023-01-20T04:10:52.359Z,991.30
2023-01-20T04:11:52.359Z,991.33
2023-01-20T04:12:52.350Z,991.31
2023-01-20T04:13:52.318Z,991.32
2023-01-20T04:14:52.323Z,991.35
2023-01-20T04:15:52.359Z,991.36
2023-01-20T04:16:52.296Z,991.37
2023-01-20T04:17:52.323Z,991.31
2023-01-20T04:18:52.256Z,991.37
2023-01-20T04:19:52.257Z,991.38
2023-01-20T04:20:52.245Z,991.34
2023-01-20T04:21:52.227Z,991.36
2023-01-20T04:22:52.228Z,991.37
2023-01-20T04:23:52.215Z,991.36
2023-01-20T04:24:52.256Z,991.41
2023-01-20T04:25:52.200Z,991.40
2023-01-20T04:26:52.172Z,991.41
2023-01-20T04:27:52.172Z,991.42
2023-01-20T04:28:52.173Z,991.44
2023-01-20T04:29:52.160Z,991.41
2023-01-20T04:30:52.282Z,991.41
2023-01-20T04:31:52.169Z,991.41
2023-01-20T04:32:52.133Z,991.42
2023-01-20T04:33:52.104Z,991.46
2023-01-20T04:34:52.134Z,991.45
2023-01-20T04:35:52.082Z,991.47
2023-01-20T04:36:52.064Z,991.46
2023-01-20T04:37:52.059Z,991.47
2023-01-20T04:38:52.069Z,991.48
2023-01-20T04:39:52.048Z,991.45
2023-01-20T04:40:52.025Z,991.51
2023-01-20T04:41:52.033Z,991.52
2023-01-20T04:42:52.007Z,991.56
2023-01-20T04:43:52.037Z,991.57
2023-01-20T04:44:52.007Z,991.55
2023-01-20T04:45:52.248Z,991.57
2023-01-20T04:46:51.993Z,991.55
2023-01-20T04:47:51.988Z,991.56
2023-01-20T04:48:51.980Z,991.55
2023-01-20T04:49:51.925Z,991.55
2023-01-20T04:50:51.913Z,991.55
2023-01-20T04:51:51.900Z,991.61
2023-01-20T04:52:51.902Z,991.63
2023-01-20T04:53:51.880Z,991.65
2023-01-20T04:54:51.866Z,991.60
2023-01-20T04:55:51.867Z,991.62
2023-01-20T04:56:51.856Z,991.66
2023-01-20T04:57:51.836Z,991.66
2023-01-20T04:58:51.837Z,991.65
2023-01-20T04:59:51.810Z,991.66
2023-01-20T05:00:51.810Z,991.66
2023-01-20T05:01:51.998Z,991.69
2023-01-20T05:02:51.984Z,991.67
2023-01-20T05:03:51.792Z,991.68
2023-01-20T05:04:51.753Z,991.68
2023-01-20T05:05:52.169Z,991.68
2023-01-20T05:06:51.989Z,991.69
2023-01-20T05:07:51.963Z,991.69
2023-01-20T05:08:51.783Z,991.66
2023-01-20T05:09:51.709Z,991.67
2023-01-20T05:10:51.691Z,991.65
2023-01-20T05:11:51.681Z,991.62
2023-01-20T05:12:52.219Z,991.66
2023-01-20T05:13:51.677Z,991.68
2023-01-20T05:14:51.664Z,991.66
2023-01-20T05:15:51.699Z,991.70
2023-01-20T05:16:51.641Z,991.69
2023-01-20T05:17:51.630Z,991.69
2023-01-20T05:18:51.628Z,991.70
2023-01-20T05:19:51.602Z,991.71
2023-01-20T05:20:51.612Z,991.69
2023-01-20T05:21:51.574Z,991.73
2023-01-20T05:22:51.566Z,991.76
2023-01-20T05:23:51.548Z,991.78
2023-01-20T05:24:51.563Z,991.69
2023-01-20T05:25:51.529Z,991.70
2023-01-20T05:26:51.513Z,991.72
2023-01-20T05:27:51.515Z,991.75
2023-01-20T05:28:51.496Z,991.76
2023-01-20T05:29:51.485Z,991.76
2023-01-20T05:30:51.631Z,991.80
2023-01-20T05:31:51.457Z,991.83
2023-01-20T05:32:51.463Z,991.86
2023-01-20T05:33:51.440Z,991.88
2023-01-20T05:34:51.435Z,991.86
2023-01-20T05:35:51.424Z,991.83
2023-01-20T05:36:51.413Z,991.87
2023-01-20T05:37:51.403Z,991.86
2023-01-20T05:38:51.384Z,991.91
2023-01-20T05:39:51.371Z,991.95
2023-01-20T05:40:51.366Z,991.95
2023-01-20T05:41:51.354Z,991.97
2023-01-20T05:42:51.363Z,991.97
2023-01-20T05:43:51.337Z,991.97
2023-01-20T05:44:51.320Z,991.97
2023-01-20T05:45:51.309Z,992.00
2023-01-20T05:46:51.288Z,991.98
2023-01-20T05:47:51.291Z,991.98
2023-01-20T05:48:51.284Z,992.02
2023-01-20T05:49:51.279Z,992.01
2023-01-20T05:50:51.254Z,992.01
2023-01-20T05:51:51.235Z,992.01
2023-01-20T05:52:51.230Z,992.01
2023-01-20T05:53:51.213Z,992.06
2023-01-20T05:54:51.210Z,992.04
2023-01-20T05:55:51.208Z,992.13
2023-01-20T05:56:51.200Z,992.12
2023-01-20T05:57:51.172Z,992.12
2023-01-20T05:58:51.163Z,992.16
2023-01-20T05:59:51.164Z,992.16
2023-01-20T06:00:51.147Z,992.13
2023-01-20T06:01:51.123Z,992.16
2023-01-20T06:02:51.158Z,992.16
2023-01-20T06:03:51.166Z,992.18
2023-01-20T06:04:51.130Z,992.15
2023-01-20T06:05:51.114Z,992.23
2023-01-20T06:06:51.073Z,992.19
2023-01-20T06:07:51.071Z,992.26
2023-01-20T06:08:51.054Z,992.23
2023-01-20T06:09:51.046Z,992.20
2023-01-20T06:10:51.056Z,992.19
2023-01-20T06:11:51.043Z,992.20
2023-01-20T06:12:51.013Z,992.20
2023-01-20T06:13:50.997Z,992.19
2023-01-20T06:14:51.007Z,992.21
2023-01-20T06:15:51.016Z,992.22
2023-01-20T06:16:51.003Z,992.27
2023-01-20T06:17:50.953Z,992.25
2023-01-20T06:18:50.947Z,992.27
2023-01-20T06:19:50.931Z,992.26
2023-01-20T06:20:50.917Z,992.27
2023-01-20T06:21:50.914Z,992.29
2023-01-20T06:22:50.928Z,992.25
2023-01-20T06:23:50.883Z,992.26
2023-01-20T06:24:50.875Z,992.24
2023-01-20T06:25:50.875Z,992.28
2023-01-20T06:26:50.852Z,992.28
2023-01-20T06:27:50.879Z,992.35
2023-01-20T06:28:50.849Z,992.30
2023-01-20T06:29:50.836Z,992.32
2023-01-20T06:30:50.872Z,992.35
2023-01-20T06:31:50.953Z,992.30
2023-01-20T06:32:50.793Z,992.34
2023-01-20T06:33:50.791Z,992.34
2023-01-20T06:34:50.790Z,992.35
2023-01-20T06:35:50.760Z,992.34
2023-01-20T06:36:50.748Z,992.41
2023-01-20T06:37:50.732Z,992.38
2023-01-20T06:38:50.834Z,992.40
2023-01-20T06:39:50.713Z,992.41
2023-01-20T06:40:50.700Z,992.39
2023-01-20T06:41:50.709Z,992.41
2023-01-20T06:42:50.687Z,992.40
2023-01-20T06:43:50.665Z,992.45
2023-01-20T06:44:50.681Z,992.43
2023-01-20T06:45:50.646Z,992.46
2023-01-20T06:46:50.641Z,992.41
2023-01-20T06:47:50.626Z,992.42
2023-01-20T06:48:50.616Z,992.45
2023-01-20T06:49:50.624Z,992.44
2023-01-20T06:50:50.582Z,992.47
2023-01-20T06:51:50.581Z,992.53
2023-01-20T06:52:50.567Z,992.49
2023-01-20T06:53:50.560Z,992.51
2023-01-20T06:54:50.593Z,992.51
2023-01-20T06:55:52.982Z,992.51
2023-01-20T06:56:50.530Z,992.52
2023-01-20T06:57:50.510Z,992.48
2023-01-20T06:58:50.531Z,992.52
2023-01-20T06:59:50.482Z,992.50
2023-01-20T07:00:50.526Z,992.55
2023-01-20T07:01:50.680Z,992.54
2023-01-20T07:02:50.467Z,992.52
2023-01-20T07:03:50.464Z,992.52
2023-01-20T07:04:50.444Z,992.61
2023-01-20T07:05:50.431Z,992.57
2023-01-20T07:06:50.423Z,992.59
2023-01-20T07:07:50.410Z,992.60
2023-01-20T07:08:50.395Z,992.62
2023-01-20T07:09:50.382Z,992.63
2023-01-20T07:10:50.412Z,992.66
2023-01-20T07:11:50.383Z,992.65
2023-01-20T07:12:50.343Z,992.64
2023-01-20T07:13:50.363Z,992.64
2023-01-20T07:14:50.330Z,992.69
2023-01-20T07:15:50.335Z,992.73
2023-01-20T07:16:50.337Z,992.73
2023-01-20T07:17:50.302Z,992.74
2023-01-20T07:18:50.289Z,992.79
2023-01-20T07:19:50.268Z,992.80
2023-01-20T07:20:50.265Z,992.81
2023-01-20T07:21:50.258Z,992.82
2023-01-20T07:22:50.258Z,992.82
2023-01-20T07:23:50.253Z,992.88
2023-01-20T07:24:50.329Z,992.90
2023-01-20T07:25:50.209Z,992.85
2023-01-20T07:26:50.209Z,992.91
2023-01-20T07:27:50.186Z,992.90
2023-01-20T07:28:50.188Z,992.92
2023-01-20T07:29:50.164Z,992.90
2023-01-20T07:30:50.216Z,992.93
2023-01-20T07:31:50.241Z,992.93
2023-01-20T07:32:50.136Z,992.95
2023-01-20T07:33:50.126Z,992.94
2023-01-20T07:34:50.390Z,992.93
2023-01-20T07:35:50.093Z,992.96
2023-01-20T07:36:50.096Z,992.95
2023-01-20T07:37:50.087Z,992.97
2023-01-20T07:38:50.123Z,992.97
2023-01-20T07:39:50.055Z,992.95
2023-01-20T07:40:50.071Z,992.96
2023-01-20T07:41:50.048Z,992.95
2023-01-20T07:42:50.042Z,992.93
2023-01-20T07:43:50.018Z,992.97
2023-01-20T07:44:50.025Z,992.97
2023-01-20T07:45:49.995Z,992.97
2023-01-20T07:46:49.977Z,992.99
2023-01-20T07:47:49.976Z,993.00
2023-01-20T07:48:49.982Z,992.97
2023-01-20T07:49:49.946Z,992.97
2023-01-20T07:50:49.936Z,993.03
2023-01-20T07:51:49.918Z,993.01
2023-01-20T07:52:49.928Z,993.02
2023-01-20T07:53:49.908Z,993.00
2023-01-20T07:54:49.923Z,993.01
2023-01-20T07:55:49.891Z,993.06
2023-01-20T07:56:49.885Z,993.06
2023-01-20T07:57:49.868Z,993.06
2023-01-20T07:58:49.855Z,993.09
2023-01-20T07:59:49.858Z,993.10
2023-01-20T08:00:49.886Z,993.16
2023-01-20T08:01:49.939Z,993.12
2023-01-20T08:02:49.810Z,993.19
2023-01-20T08:03:49.795Z,993.18
2023-01-20T08:04:49.832Z,993.20
2023-01-20T08:05:49.784Z,993.21
2023-01-20T08:06:49.839Z,993.26
2023-01-20T08:07:49.759Z,993.28
2023-01-20T08:08:49.733Z,993.31
2023-01-20T08:09:49.748Z,993.29
2023-01-20T08:10:49.843Z,993.28
2023-01-20T08:11:49.724Z,993.30
2023-01-20T08:12:49.706Z,993.32
2023-01-20T08:13:49.695Z,993.36
2023-01-20T08:14:49.683Z,993.38
2023-01-20T08:15:49.695Z,993.42
2023-01-20T08:16:49.729Z,993.43
2023-01-20T08:17:49.642Z,993.45
2023-01-20T08:18:49.636Z,993.47
2023-01-20T08:19:49.639Z,993.45
2023-01-20T08:20:49.602Z,993.51
2023-01-20T08:21:49.601Z,993.47
2023-01-20T08:22:49.599Z,993.47
2023-01-20T08:23:49.575Z,993.49
2023-01-20T08:24:49.581Z,993.46
2023-01-20T08:25:49.557Z,993.52
2023-01-20T08:26:49.550Z,993.51
2023-01-20T08:27:49.534Z,993.52
2023-01-20T08:28:49.517Z,993.59
2023-01-20T08:29:49.509Z,993.54
2023-01-20T08:30:49.554Z,993.54
2023-01-20T08:31:49.633Z,993.56
2023-01-20T08:32:49.502Z,993.55
2023-01-20T08:33:49.466Z,993.60
2023-01-20T08:34:49.456Z,993.59
2023-01-20T08:35:49.434Z,993.58
2023-01-20T08:36:49.439Z,993.60
2023-01-20T08:37:49.438Z,993.59
2023-01-20T08:38:49.422Z,993.61
2023-01-20T08:39:49.384Z,993.57
2023-01-20T08:40:49.386Z,993.57
2023-01-20T08:41:49.381Z,993.56
2023-01-20T08:42:49.656Z,993.57
2023-01-20T08:43:49.382Z,993.57
2023-01-20T08:44:49.591Z,993.57
2023-01-20T08:45:49.337Z,993.60
2023-01-20T08:46:49.315Z,993.59
2023-01-20T08:47:49.304Z,993.56
2023-01-20T08:48:49.311Z,993.62
2023-01-20T08:49:49.286Z,993.60
2023-01-20T08:50:49.270Z,993.66
2023-01-20T08:51:49.263Z,993.64
2023-01-20T08:52:49.258Z,993.69
2023-01-20T08:53:49.248Z,993.66
2023-01-20T08:54:49.246Z,993.71
2023-01-20T08:55:49.237Z,993.71
2023-01-20T08:56:49.208Z,993.71
2023-01-20T08:57:49.227Z,993.69
2023-01-20T08:58:49.192Z,993.70
2023-01-20T08:59:49.185Z,993.70
2023-01-20T09:00:49.167Z,993.74
2023-01-20T09:01:49.146Z,993.71
2023-01-20T09:02:49.214Z,993.74
2023-01-20T09:04:03.805Z,993.75
2023-01-20T09:04:49.125Z,993.75
2023-01-20T09:05:49.151Z,993.75
2023-01-20T09:06:49.137Z,993.75
2023-01-20T09:07:49.086Z,993.73
2023-01-20T09:08:49.096Z,993.75
2023-01-20T09:09:49.058Z,993.75
2023-01-20T09:10:49.050Z,993.82
2023-01-20T09:11:49.060Z,993.77
2023-01-20T09:12:49.039Z,993.78
2023-01-20T09:13:49.023Z,993.82
2023-01-20T09:14:49.002Z,993.81
2023-01-20T09:15:49.050Z,993.81
2023-01-20T09:16:48.982Z,993.87
2023-01-20T09:17:48.988Z,993.78
2023-01-20T09:18:48.970Z,993.79
2023-01-20T09:19:48.962Z,993.84
2023-01-20T09:20:48.971Z,993.84
2023-01-20T09:21:48.965Z,993.83
2023-01-20T09:22:48.932Z,993.75
2023-01-20T09:23:48.916Z,993.78
2023-01-20T09:24:48.899Z,993.83
2023-01-20T09:25:48.894Z,993.85
2023-01-20T09:26:48.892Z,993.83
2023-01-20T09:27:48.886Z,993.83
2023-01-20T09:28:48.859Z,993.87
2023-01-20T09:29:48.851Z,993.86
2023-01-20T09:30:48.959Z,993.87
2023-01-20T09:31:49.007Z,993.88
2023-01-20T09:32:48.809Z,993.87
2023-01-20T09:33:48.798Z,993.92
2023-01-20T09:34:48.811Z,993.94
2023-01-20T09:35:48.782Z,993.91
2023-01-20T09:36:48.765Z,993.95
2023-01-20T09:37:48.752Z,993.96
2023-01-20T09:38:48.747Z,993.95
2023-01-20T09:39:48.747Z,993.93
2023-01-20T09:40:48.735Z,993.92
2023-01-20T09:41:48.707Z,993.93
2023-01-20T09:42:48.716Z,993.95
2023-01-20T09:43:48.690Z,993.99
2023-01-20T09:44:48.689Z,993.93
2023-01-20T09:45:48.669Z,993.96
2023-01-20T09:46:48.647Z,993.95
2023-01-20T09:47:48.676Z,993.94
2023-01-20T09:48:50.609Z,993.92
2023-01-20T09:49:48.632Z,993.92
2023-01-20T09:50:48.643Z,993.99
2023-01-20T09:51:48.613Z,993.96
2023-01-20T09:52:48.602Z,993.95
2023-01-20T09:53:48.572Z,993.96
2023-01-20T09:54:48.592Z,993.94
2023-01-20T09:55:48.568Z,993.95
2023-01-20T09:56:48.565Z,993.95
2023-01-20T09:57:48.531Z,993.96
2023-01-20T09:58:48.547Z,993.93
2023-01-20T09:59:48.521Z,993.93
2023-01-20T10:00:48.518Z,993.91
2023-01-20T10:01:48.551Z,993.91
2023-01-20T10:02:48.506Z,993.90
2023-01-20T10:03:48.469Z,993.93
2023-01-20T10:04:48.463Z,993.91
2023-01-20T10:05:48.466Z,993.93
2023-01-20T10:06:48.431Z,993.94
2023-01-20T10:07:48.417Z,993.94
2023-01-20T10:09:04.127Z,993.93
2023-01-20T10:09:48.410Z,993.96
2023-01-20T10:10:48.384Z,993.97
2023-01-20T10:11:48.373Z,993.96
2023-01-20T10:12:48.358Z,993.97
2023-01-20T10:13:48.353Z,993.99
2023-01-20T10:14:48.345Z,993.97
2023-01-20T10:15:48.352Z,993.97
2023-01-20T10:16:48.345Z,993.98
2023-01-20T10:17:48.327Z,993.98
2023-01-20T10:18:48.316Z,993.97
2023-01-20T10:19:48.309Z,994.00
2023-01-20T10:20:48.283Z,993.98
2023-01-20T10:21:48.271Z,993.97
2023-01-20T10:22:48.266Z,993.95
2023-01-20T10:23:48.343Z,993.95
2023-01-20T10:24:48.248Z,993.96
2023-01-20T10:25:48.246Z,993.97
2023-01-20T10:26:48.215Z,994.01
2023-01-20T10:27:48.196Z,994.00
2023-01-20T10:28:48.218Z,994.03
2023-01-20T10:29:48.192Z,994.02
2023-01-20T10:30:48.441Z,993.99
2023-01-20T10:31:48.206Z,994.01
2023-01-20T10:32:48.138Z,993.97
2023-01-20T10:33:48.129Z,994.00
2023-01-20T10:34:48.141Z,993.96
2023-01-20T10:35:48.109Z,993.98
2023-01-20T10:36:48.139Z,994.02
2023-01-20T10:37:48.123Z,993.97
2023-01-20T10:38:48.083Z,993.99
2023-01-20T10:39:48.069Z,993.97
2023-01-20T10:40:48.138Z,993.99
2023-01-20T10:41:48.045Z,993.99
2023-01-20T10:42:48.068Z,993.99
2023-01-20T10:43:48.035Z,993.95
2023-01-20T10:44:48.028Z,993.92
2023-01-20T10:45:48.004Z,993.87
2023-01-20T10:46:48.071Z,993.91
2023-01-20T10:47:47.985Z,993.89
2023-01-20T10:48:47.963Z,993.85
2023-01-20T10:49:47.962Z,993.86
2023-01-20T10:50:47.979Z,993.82
2023-01-20T10:51:47.941Z,993.85
2023-01-20T10:52:47.945Z,993.79
2023-01-20T10:53:47.915Z,993.85
2023-01-20T10:54:47.943Z,993.82
2023-01-20T10:55:47.890Z,993.84
2023-01-20T10:56:47.879Z,993.85
2023-01-20T10:57:47.881Z,993.84
2023-01-20T10:58:47.859Z,993.82
2023-01-20T10:59:47.868Z,993.85
2023-01-20T11:00:47.852Z,993.85
2023-01-20T11:01:50.244Z,993.87
2023-01-20T11:02:47.851Z,993.82
2023-01-20T11:03:47.811Z,993.83
2023-01-20T11:04:47.795Z,993.85
2023-01-20T11:05:47.773Z,993.86
2023-01-20T11:06:47.775Z,993.83
2023-01-20T11:07:47.796Z,993.86
2023-01-20T11:08:47.754Z,993.83
2023-01-20T11:09:47.750Z,993.89
2023-01-20T11:10:47.732Z,993.86
2023-01-20T11:11:47.713Z,993.85
2023-01-20T11:12:47.706Z,993.82
2023-01-20T11:13:47.705Z,993.83
2023-01-20T11:14:47.675Z,993.82
2023-01-20T11:15:47.755Z,993.83
2023-01-20T11:16:47.676Z,993.81
2023-01-20T11:17:47.656Z,993.80
2023-01-20T11:18:47.640Z,993.83
2023-01-20T11:19:47.629Z,993.78
2023-01-20T11:20:47.616Z,993.83
2023-01-20T11:21:47.653Z,993.77
2023-01-20T11:22:47.601Z,993.85
2023-01-20T11:23:47.592Z,993.79
2023-01-20T11:24:47.568Z,993.89
2023-01-20T11:25:47.566Z,993.82
2023-01-20T11:26:47.558Z,993.79
2023-01-20T11:27:47.541Z,993.91
2023-01-20T11:28:47.535Z,993.92
2023-01-20T11:29:47.532Z,993.88
2023-01-20T11:30:47.514Z,993.92
2023-01-20T11:31:47.581Z,993.95
2023-01-20T11:32:47.479Z,993.93
2023-01-20T11:33:47.474Z,993.95
2023-01-20T11:34:47.633Z,993.96
2023-01-20T11:35:47.478Z,993.97
2023-01-20T11:36:47.442Z,993.99
2023-01-20T11:37:47.453Z,994.01
2023-01-20T11:38:47.411Z,993.99
2023-01-20T11:39:47.402Z,993.98
2023-01-20T11:40:47.411Z,993.97
2023-01-20T11:41:47.379Z,993.92
2023-01-20T11:42:47.395Z,993.96
2023-01-20T11:43:47.371Z,993.95
2023-01-20T11:44:47.365Z,993.94
2023-01-20T11:45:47.349Z,993.94
2023-01-20T11:46:47.432Z,993.92
2023-01-20T11:47:47.322Z,993.93
2023-01-20T11:48:47.347Z,993.93
2023-01-20T11:49:47.298Z,993.94
2023-01-20T11:50:47.293Z,993.91
2023-01-20T11:51:47.351Z,993.95
2023-01-20T11:52:47.438Z,993.93
2023-01-20T11:53:47.249Z,993.90
2023-01-20T11:54:47.251Z,993.91
2023-01-20T11:55:47.241Z,993.91
2023-01-20T11:56:47.216Z,993.88
2023-01-20T11:57:47.216Z,993.89
2023-01-20T11:58:47.217Z,993.87
2023-01-20T11:59:47.197Z,993.86
2023-01-20T12:00:47.179Z,993.87
2023-01-20T12:01:47.177Z,993.87
2023-01-20T12:02:47.157Z,993.91
2023-01-20T12:03:47.221Z,993.89
2023-01-20T12:04:47.170Z,993.82
2023-01-20T12:05:47.178Z,993.83
2023-01-20T12:06:47.276Z,993.86
2023-01-20T12:07:47.139Z,993.87
2023-01-20T12:08:47.103Z,993.86
2023-01-20T12:09:47.174Z,993.87
2023-01-20T12:10:47.084Z,993.90
2023-01-20T12:11:47.126Z,993.87
2023-01-20T12:12:47.059Z,993.89
2023-01-20T12:13:47.036Z,993.91
2023-01-20T12:14:47.039Z,993.94
2023-01-20T12:15:47.041Z,993.90
2023-01-20T12:16:47.160Z,993.92
2023-01-20T12:17:46.995Z,993.97
2023-01-20T12:19:01.148Z,993.96
2023-01-20T12:19:46.979Z,993.93
2023-01-20T12:20:55.076Z,993.93
2023-01-20T12:21:46.965Z,993.93
2023-01-20T12:22:47.074Z,993.89
2023-01-20T12:23:47.236Z,993.91
2023-01-20T12:24:46.908Z,993.94
2023-01-20T12:25:46.908Z,993.96
2023-01-20T12:26:46.897Z,993.98
2023-01-20T12:27:46.890Z,993.95
2023-01-20T12:28:46.894Z,993.94